createdAt,value
2023-04-09T00:00:01.315Z,24.08
2023-04-09T00:01:01.335Z,24.08
2023-04-09T00:02:01.463Z,24.06
2023-04-09T00:03:01.469Z,24.08
2023-04-09T00:04:01.523Z,24.08
2023-04-09T00:05:01.457Z,24.06
2023-04-09T00:06:01.491Z,24.06
2023-04-09T00:07:01.492Z,24.08
2023-04-09T00:08:01.506Z,24.05
2023-04-09T00:09:01.543Z,24.06
2023-04-09T00:10:01.622Z,24.08
2023-04-09T00:11:01.565Z,24.08
2023-04-09T00:12:01.595Z,24.05
2023-04-09T00:13:01.656Z,24.08
2023-04-09T00:14:01.668Z,24.05
2023-04-09T00:15:01.675Z,24.05
2023-04-09T00:16:01.664Z,24.05
2023-04-09T00:17:01.636Z,24.06
2023-04-09T00:18:01.669Z,24.05
2023-04-09T00:19:01.679Z,24.08
2023-04-09T00:20:01.679Z,24.06
2023-04-09T00:21:01.693Z,24.05
2023-04-09T00:22:01.668Z,24.06
2023-04-09T00:23:01.712Z,24.05
2023-04-09T00:24:01.743Z,24.05
2023-04-09T00:25:01.713Z,24.03
2023-04-09T00:26:01.723Z,24.05
2023-04-09T00:27:01.754Z,24.08
2023-04-09T00:28:01.737Z,24.05
2023-04-09T00:29:01.788Z,24.05
2023-04-09T00:30:01.718Z,24.03
2023-04-09T00:31:01.778Z,24.05
2023-04-09T00:32:01.780Z,24.05
2023-04-09T00:33:01.795Z,24.05
2023-04-09T00:34:01.803Z,24.03
2023-04-09T00:35:01.757Z,24.05
2023-04-09T00:36:01.813Z,24.02
2023-04-09T00:37:02.300Z,24.05
2023-04-09T00:38:01.767Z,24.05
2023-04-09T00:39:01.767Z,24.03
2023-04-09T00:40:01.778Z,24.05
2023-04-09T00:41:01.805Z,24.03
2023-04-09T00:42:01.746Z,24.05
2023-04-09T00:43:01.768Z,24.06
2023-04-09T00:44:01.834Z,24.03
2023-04-09T00:45:01.789Z,24.03
2023-04-09T00:46:01.824Z,24.05
2023-04-09T00:47:01.770Z,24.05
2023-04-09T00:48:01.908Z,24.05
2023-04-09T00:49:01.819Z,24.02
2023-04-09T00:50:01.784Z,24.03
2023-04-09T00:51:01.784Z,24.03
2023-04-09T00:52:01.800Z,24.01
2023-04-09T00:53:01.833Z,24.02
2023-04-09T00:54:02.341Z,24.02
2023-04-09T00:55:01.882Z,24.01
2023-04-09T00:56:01.891Z,24.05
2023-04-09T00:57:01.853Z,24.03
2023-04-09T00:58:01.902Z,24.02
2023-04-09T00:59:01.899Z,24.03
2023-04-09T01:00:01.908Z,24.03
2023-04-09T01:01:01.933Z,24.02
2023-04-09T01:02:01.942Z,24.05
2023-04-09T01:03:01.943Z,24.02
2023-04-09T01:04:01.911Z,24.05
2023-04-09T01:05:01.988Z,24.03
2023-04-09T01:06:01.986Z,24.01
2023-04-09T01:07:01.949Z,24.02
2023-04-09T01:08:01.961Z,24.01
2023-04-09T01:09:01.969Z,24.02
2023-04-09T01:10:01.941Z,24.01
2023-04-09T01:11:01.986Z,24.02
2023-04-09T01:12:02.059Z,24.02
2023-04-09T01:13:01.993Z,24.01
2023-04-09T01:14:01.995Z,24.02
2023-04-09T01:15:02.053Z,24.01
2023-04-09T01:16:02.041Z,24.03
2023-04-09T01:17:02.031Z,24.03
2023-04-09T01:18:02.074Z,24.02
2023-04-09T01:19:02.033Z,24.02
2023-04-09T01:20:02.070Z,24.01
2023-04-09T01:21:02.132Z,24.02
2023-04-09T01:22:02.099Z,24.01
2023-04-09T01:23:02.177Z,23.99
2023-04-09T01:24:02.166Z,24.01
2023-04-09T01:25:02.172Z,24.01
2023-04-09T01:26:02.190Z,23.99
2023-04-09T01:27:02.203Z,23.99
2023-04-09T01:28:02.243Z,24.01
2023-04-09T01:29:02.247Z,23.99
2023-04-09T01:30:02.252Z,24.02
2023-04-09T01:31:02.286Z,24.02
2023-04-09T01:32:02.258Z,24.02
2023-04-09T01:33:02.277Z,24.01
2023-04-09T01:34:02.280Z,23.99
2023-04-09T01:35:02.311Z,24.03
2023-04-09T01:36:02.326Z,23.99
2023-04-09T01:37:02.335Z,24.05
2023-04-09T01:38:02.343Z,24.02
2023-04-09T01:39:02.346Z,23.99
2023-04-09T01:40:02.328Z,24.01
2023-04-09T01:41:02.333Z,23.99
2023-04-09T01:42:02.312Z,24.01
2023-04-09T01:43:02.402Z,23.99
2023-04-09T01:44:02.433Z,23.99
2023-04-09T01:45:02.400Z,23.99
2023-04-09T01:46:02.457Z,24.01
2023-04-09T01:47:02.431Z,23.98
2023-04-09T01:48:02.443Z,23.98
2023-04-09T01:49:02.476Z,23.98
2023-04-09T01:50:02.557Z,23.99
2023-04-09T01:51:02.474Z,23.99
2023-04-09T01:52:02.513Z,23.99
2023-04-09T01:53:02.510Z,23.98
2023-04-09T01:54:02.482Z,24.01
2023-04-09T01:55:02.559Z,23.99
2023-04-09T01:56:02.605Z,23.96
2023-04-09T01:57:02.592Z,23.99
2023-04-09T01:58:02.573Z,23.98
2023-04-09T01:59:02.581Z,23.96
2023-04-09T02:00:02.626Z,23.98
2023-04-09T02:01:02.684Z,23.98
2023-04-09T02:02:02.735Z,23.99
2023-04-09T02:03:02.790Z,23.99
2023-04-09T02:04:02.791Z,23.96
2023-04-09T02:05:02.719Z,23.98
2023-04-09T02:06:02.760Z,23.98
2023-04-09T02:07:02.758Z,23.98
2023-04-09T02:08:02.799Z,23.98
2023-04-09T02:09:02.779Z,23.99
2023-04-09T02:10:02.746Z,23.96
2023-04-09T02:11:02.708Z,23.99
2023-04-09T02:12:02.834Z,23.96
2023-04-09T02:13:02.939Z,23.95
2023-04-09T02:14:02.949Z,23.96
2023-04-09T02:15:02.940Z,23.98
2023-04-09T02:16:02.963Z,23.96
2023-04-09T02:17:02.944Z,23.95
2023-04-09T02:18:03.025Z,23.99
2023-04-09T02:19:03.041Z,23.96
2023-04-09T02:20:03.114Z,23.96
2023-04-09T02:21:03.198Z,23.98
2023-04-09T02:22:03.249Z,23.98
2023-04-09T02:23:03.260Z,23.96
2023-04-09T02:24:03.307Z,23.96
2023-04-09T02:25:03.247Z,23.96
2023-04-09T02:26:03.276Z,23.98
2023-04-09T02:27:03.267Z,23.95
2023-04-09T02:28:03.270Z,23.96
2023-04-09T02:29:03.254Z,23.96
2023-04-09T02:30:03.316Z,23.99
2023-04-09T02:31:03.318Z,23.95
2023-04-09T02:32:03.271Z,23.98
2023-04-09T02:33:03.279Z,23.96
2023-04-09T02:34:03.252Z,23.93
2023-04-09T02:35:03.253Z,23.96
2023-04-09T02:36:03.322Z,23.98
2023-04-09T02:37:03.286Z,23.95
2023-04-09T02:38:03.276Z,23.93
2023-04-09T02:39:03.284Z,23.95
2023-04-09T02:40:03.288Z,23.96
2023-04-09T02:41:03.362Z,23.98
2023-04-09T02:42:03.334Z,23.96
2023-04-09T02:43:03.414Z,23.98
2023-04-09T02:44:03.505Z,23.95
2023-04-09T02:45:03.405Z,23.95
2023-04-09T02:46:03.450Z,23.95
2023-04-09T02:47:03.400Z,23.93
2023-04-09T02:48:03.463Z,23.93
2023-04-09T02:49:03.470Z,23.95
2023-04-09T02:50:03.443Z,23.95
2023-04-09T02:51:03.410Z,23.96
2023-04-09T02:52:03.425Z,23.95
2023-04-09T02:53:03.499Z,23.96
2023-04-09T02:54:03.569Z,23.96
2023-04-09T02:55:03.609Z,23.93
2023-04-09T02:56:03.603Z,23.95
2023-04-09T02:57:03.617Z,23.95
2023-04-09T02:58:03.617Z,23.96
2023-04-09T02:59:03.622Z,23.95
2023-04-09T03:00:03.687Z,23.96
2023-04-09T03:01:03.692Z,23.92
2023-04-09T03:02:03.782Z,23.95
2023-04-09T03:03:03.842Z,23.95
2023-04-09T03:04:03.823Z,23.95
2023-04-09T03:05:03.723Z,23.95
2023-04-09T03:06:03.733Z,23.93
2023-04-09T03:07:03.771Z,23.92
2023-04-09T03:08:03.737Z,23.93
2023-04-09T03:09:03.751Z,23.95
2023-04-09T03:10:03.745Z,23.93
2023-04-09T03:11:03.793Z,23.96
2023-04-09T03:12:03.899Z,23.92
2023-04-09T03:13:03.884Z,23.93
2023-04-09T03:14:03.892Z,23.92
2023-04-09T03:15:03.858Z,23.92
2023-04-09T03:16:03.909Z,23.93
2023-04-09T03:17:03.861Z,23.93
2023-04-09T03:18:03.947Z,23.95
2023-04-09T03:19:03.968Z,23.95
2023-04-09T03:20:04.015Z,23.91
2023-04-09T03:21:03.951Z,23.92
2023-04-09T03:22:03.953Z,23.92
2023-04-09T03:23:03.989Z,23.93
2023-04-09T03:24:04.092Z,23.93
2023-04-09T03:25:04.133Z,23.93
2023-04-09T03:26:04.151Z,23.93
2023-04-09T03:27:04.136Z,23.93
2023-04-09T03:28:04.159Z,23.91
2023-04-09T03:29:04.151Z,23.93
2023-04-09T03:30:04.163Z,23.92
2023-04-09T03:31:04.260Z,23.92
2023-04-09T03:32:04.309Z,23.93
2023-04-09T03:33:04.448Z,23.91
2023-04-09T03:34:04.532Z,23.92
2023-04-09T03:35:04.622Z,23.93
2023-04-09T03:36:04.638Z,23.89
2023-04-09T03:37:04.648Z,23.91
2023-04-09T03:38:04.620Z,23.92
2023-04-09T03:39:04.641Z,23.89
2023-04-09T03:40:04.671Z,23.92
2023-04-09T03:41:04.706Z,23.93
2023-04-09T03:42:04.776Z,23.91
2023-04-09T03:43:04.769Z,23.91
2023-04-09T03:44:04.766Z,23.91
2023-04-09T03:45:04.793Z,23.92
2023-04-09T03:46:04.803Z,23.92
2023-04-09T03:47:04.806Z,23.91
2023-04-09T03:48:04.830Z,23.91
2023-04-09T03:49:04.940Z,23.95
2023-04-09T03:50:05.014Z,23.91
2023-04-09T03:51:05.085Z,23.92
2023-04-09T03:52:05.180Z,23.92
2023-04-09T03:53:05.302Z,23.92
2023-04-09T03:54:05.379Z,23.91
2023-04-09T03:55:05.489Z,23.91
2023-04-09T03:56:05.485Z,23.91
2023-04-09T03:57:05.487Z,23.89
2023-04-09T03:58:05.527Z,23.91
2023-04-09T03:59:05.487Z,23.91
2023-04-09T04:00:05.488Z,23.91
2023-04-09T04:01:05.528Z,23.91
2023-04-09T04:02:05.726Z,23.89
2023-04-09T04:03:05.964Z,23.91
2023-04-09T04:04:06.031Z,23.91
2023-04-09T04:05:05.828Z,23.92
2023-04-09T04:06:05.837Z,23.91
2023-04-09T04:07:05.855Z,23.91
2023-04-09T04:08:05.862Z,23.93
2023-04-09T04:09:05.887Z,23.91
2023-04-09T04:10:05.937Z,23.91
2023-04-09T04:11:05.927Z,23.91
2023-04-09T04:12:05.912Z,23.92
2023-04-09T04:13:05.980Z,23.91
2023-04-09T04:14:05.961Z,23.91
2023-04-09T04:15:05.960Z,23.89
2023-04-09T04:16:06.084Z,23.91
2023-04-09T04:17:06.129Z,23.88
2023-04-09T04:18:06.225Z,23.91
2023-04-09T04:19:06.216Z,23.89
2023-04-09T04:20:06.258Z,23.89
2023-04-09T04:21:06.235Z,23.91
2023-04-09T04:22:06.254Z,23.88
2023-04-09T04:23:06.226Z,23.89
2023-04-09T04:24:06.294Z,23.89
2023-04-09T04:25:06.343Z,23.89
2023-04-09T04:26:06.284Z,23.88
2023-04-09T04:27:06.325Z,23.89
2023-04-09T04:28:06.302Z,23.89
2023-04-09T04:29:06.356Z,23.88
2023-04-09T04:30:06.421Z,23.89
2023-04-09T04:31:06.349Z,23.86
2023-04-09T04:32:06.519Z,23.88
2023-04-09T04:33:06.348Z,23.88
2023-04-09T04:34:06.398Z,23.91
2023-04-09T04:35:06.501Z,23.88
2023-04-09T04:36:06.575Z,23.88
2023-04-09T04:37:06.730Z,23.89
2023-04-09T04:38:06.802Z,23.89
2023-04-09T04:39:06.791Z,23.88
2023-04-09T04:40:06.803Z,23.89
2023-04-09T04:41:06.841Z,23.88
2023-04-09T04:42:06.810Z,23.89
2023-04-09T04:43:06.814Z,23.88
2023-04-09T04:44:06.894Z,23.89
2023-04-09T04:45:06.998Z,23.91
2023-04-09T04:46:07.889Z,23.88
2023-04-09T04:47:07.105Z,23.89
2023-04-09T04:48:07.068Z,23.86
2023-04-09T04:49:07.064Z,23.86
2023-04-09T04:50:07.085Z,23.86
2023-04-09T04:51:07.090Z,23.89
2023-04-09T04:52:07.199Z,23.91
2023-04-09T04:53:07.317Z,23.86
2023-04-09T04:54:07.313Z,23.88
2023-04-09T04:55:07.336Z,23.88
2023-04-09T04:56:07.337Z,23.89
2023-04-09T04:57:07.288Z,23.86
2023-04-09T04:58:07.336Z,23.88
2023-04-09T04:59:07.387Z,23.86
2023-04-09T05:00:07.429Z,23.86
2023-04-09T05:01:07.441Z,23.89
2023-04-09T05:02:07.455Z,23.86
2023-04-09T05:03:07.492Z,23.86
2023-04-09T05:04:07.421Z,23.88
2023-04-09T05:05:07.486Z,23.88
2023-04-09T05:06:07.573Z,23.88
2023-04-09T05:07:07.700Z,23.85
2023-04-09T05:08:07.734Z,23.86
2023-04-09T05:09:07.760Z,23.86
2023-04-09T05:10:07.735Z,23.88
2023-04-09T05:11:07.725Z,23.88
2023-04-09T05:12:07.778Z,23.86
2023-04-09T05:13:07.779Z,23.86
2023-04-09T05:14:07.815Z,23.86
2023-04-09T05:15:07.793Z,23.86
2023-04-09T05:16:07.807Z,23.88
2023-04-09T05:17:07.774Z,23.86
2023-04-09T05:18:07.766Z,23.85
2023-04-09T05:19:07.858Z,23.88
2023-04-09T05:20:07.996Z,23.85
2023-04-09T05:21:07.979Z,23.88
2023-04-09T05:22:07.957Z,23.85
2023-04-09T05:23:08.002Z,23.86
2023-04-09T05:24:07.965Z,23.86
2023-04-09T05:25:07.974Z,23.88
2023-04-09T05:26:08.060Z,23.86
2023-04-09T05:27:08.209Z,23.84
2023-04-09T05:28:08.299Z,23.88
2023-04-09T05:29:08.364Z,23.85
2023-04-09T05:30:08.354Z,23.84
2023-04-09T05:31:08.407Z,23.84
2023-04-09T05:32:08.358Z,23.84
2023-04-09T05:33:08.330Z,23.85
2023-04-09T05:34:08.387Z,23.85
2023-04-09T05:35:08.415Z,23.85
2023-04-09T05:36:08.568Z,23.86
2023-04-09T05:37:08.549Z,23.85
2023-04-09T05:38:08.576Z,23.85
2023-04-09T05:39:08.616Z,23.85
2023-04-09T05:40:08.581Z,23.85
2023-04-09T05:41:08.568Z,23.84
2023-04-09T05:42:08.674Z,23.86
2023-04-09T05:43:08.758Z,23.85
2023-04-09T05:44:08.756Z,23.86
2023-04-09T05:45:08.758Z,23.86
2023-04-09T05:46:08.866Z,23.84
2023-04-09T05:47:08.776Z,23.85
2023-04-09T05:48:08.756Z,23.86
2023-04-09T05:49:08.841Z,23.85
2023-04-09T05:50:08.828Z,23.85
2023-04-09T05:51:08.820Z,23.86
2023-04-09T05:52:08.878Z,23.85
2023-04-09T05:53:08.864Z,23.86
2023-04-09T05:54:08.877Z,23.85
2023-04-09T05:55:08.883Z,23.82
2023-04-09T05:56:08.931Z,23.84
2023-04-09T05:57:08.904Z,23.82
2023-04-09T05:58:08.917Z,23.85
2023-04-09T05:59:08.929Z,23.85
2023-04-09T06:00:08.943Z,23.84
2023-04-09T06:01:09.022Z,23.86
2023-04-09T06:02:09.238Z,23.85
2023-04-09T06:03:09.335Z,23.88
2023-04-09T06:04:09.535Z,23.86
2023-04-09T06:05:09.431Z,23.86
2023-04-09T06:06:09.510Z,23.86
2023-04-09T06:07:09.618Z,23.85
2023-04-09T06:08:09.631Z,23.86
2023-04-09T06:09:09.651Z,23.85
2023-04-09T06:10:09.634Z,23.85
2023-04-09T06:11:09.607Z,23.85
2023-04-09T06:12:09.629Z,23.85
2023-04-09T06:13:09.728Z,23.84
2023-04-09T06:14:09.809Z,23.85
2023-04-09T06:15:09.847Z,23.85
2023-04-09T06:16:09.906Z,23.84
2023-04-09T06:17:09.861Z,23.85
2023-04-09T06:18:09.856Z,23.85
2023-04-09T06:19:09.895Z,23.85
2023-04-09T06:20:09.982Z,23.88
2023-04-09T06:21:09.966Z,23.85
2023-04-09T06:22:09.950Z,23.86
2023-04-09T06:23:09.965Z,23.86
2023-04-09T06:24:10.005Z,23.85
2023-04-09T06:25:10.006Z,23.84
2023-04-09T06:26:10.076Z,23.85
2023-04-09T06:27:10.175Z,23.85
2023-04-09T06:28:10.242Z,23.86
2023-04-09T06:29:10.340Z,23.86
2023-04-09T06:30:10.345Z,23.86
2023-04-09T06:31:10.424Z,23.88
2023-04-09T06:32:10.370Z,23.86
2023-04-09T06:33:10.384Z,23.84
2023-04-09T06:34:10.421Z,23.82
2023-04-09T06:35:10.984Z,23.85
2023-04-09T06:36:10.493Z,23.84
2023-04-09T06:37:10.481Z,23.86
2023-04-09T06:38:10.447Z,23.85
2023-04-09T06:39:10.483Z,23.84
2023-04-09T06:40:10.516Z,23.85
2023-04-09T06:41:10.511Z,23.85
2023-04-09T06:42:10.532Z,23.85
2023-04-09T06:43:10.514Z,23.85
2023-04-09T06:44:10.544Z,23.85
2023-04-09T06:45:10.571Z,23.86
2023-04-09T06:46:10.696Z,23.85
2023-04-09T06:47:10.646Z,23.85
2023-04-09T06:48:10.626Z,23.85
2023-04-09T06:49:10.730Z,23.86
2023-04-09T06:50:10.658Z,23.84
2023-04-09T06:51:10.718Z,23.84
2023-04-09T06:52:10.734Z,23.82
2023-04-09T06:53:10.874Z,23.85
2023-04-09T06:54:10.915Z,23.84
2023-04-09T06:55:11.027Z,23.85
2023-04-09T06:56:11.174Z,23.86
2023-04-09T06:57:11.242Z,23.84
2023-04-09T06:58:11.314Z,23.85
2023-04-09T06:59:11.348Z,23.86
2023-04-09T07:00:11.330Z,23.84
2023-04-09T07:01:11.328Z,23.88
2023-04-09T07:02:11.428Z,23.86
2023-04-09T07:03:11.521Z,23.86
2023-04-09T07:04:11.602Z,23.84
2023-04-09T07:05:11.589Z,23.85
2023-04-09T07:06:11.741Z,23.86
2023-04-09T07:07:11.712Z,23.85
2023-04-09T07:08:11.744Z,23.85
2023-04-09T07:09:11.696Z,23.84
2023-04-09T07:10:11.696Z,23.85
2023-04-09T07:11:11.740Z,23.86
2023-04-09T07:12:11.855Z,23.85
2023-04-09T07:13:11.810Z,23.86
2023-04-09T07:14:11.844Z,23.84
2023-04-09T07:15:11.812Z,23.85
2023-04-09T07:16:11.863Z,23.85
2023-04-09T07:17:11.830Z,23.85
2023-04-09T07:18:11.923Z,23.85
2023-04-09T07:19:11.935Z,23.86
2023-04-09T07:20:11.953Z,23.86
2023-04-09T07:21:11.898Z,23.86
2023-04-09T07:22:11.964Z,23.84
2023-04-09T07:23:11.900Z,23.85
2023-04-09T07:24:12.003Z,23.84
2023-04-09T07:25:12.039Z,23.86
2023-04-09T07:26:12.046Z,23.85
2023-04-09T07:27:12.058Z,23.86
2023-04-09T07:28:12.020Z,23.86
2023-04-09T07:29:12.064Z,23.88
2023-04-09T07:30:12.141Z,23.88
2023-04-09T07:31:12.241Z,23.86
2023-04-09T07:32:12.332Z,23.82
2023-04-09T07:33:12.468Z,23.85
2023-04-09T07:34:12.341Z,23.85
2023-04-09T07:35:12.319Z,23.84
2023-04-09T07:36:12.482Z,23.86
2023-04-09T07:37:12.430Z,23.84
2023-04-09T07:38:12.532Z,23.85
2023-04-09T07:39:12.550Z,23.86
2023-04-09T07:40:12.510Z,23.85
2023-04-09T07:41:12.491Z,23.86
2023-04-09T07:42:12.560Z,23.86
2023-04-09T07:43:12.523Z,23.84
2023-04-09T07:44:12.653Z,23.86
2023-04-09T07:45:12.617Z,23.85
2023-04-09T07:46:12.642Z,23.86
2023-04-09T07:47:12.627Z,23.85
2023-04-09T07:48:12.624Z,23.86
2023-04-09T07:49:12.666Z,23.84
2023-04-09T07:50:12.717Z,23.86
2023-04-09T07:51:12.774Z,23.85
2023-04-09T07:52:12.888Z,23.85
2023-04-09T07:53:12.989Z,23.85
2023-04-09T07:54:13.014Z,23.88
2023-04-09T07:55:12.994Z,23.86
2023-04-09T07:56:13.013Z,23.84
2023-04-09T07:57:13.013Z,23.84
2023-04-09T07:58:12.991Z,23.88
2023-04-09T07:59:13.088Z,23.85
2023-04-09T08:00:13.144Z,23.88
2023-04-09T08:01:13.276Z,23.86
2023-04-09T08:02:15.312Z,23.86
2023-04-09T08:03:13.442Z,23.86
2023-04-09T08:04:13.543Z,23.88
2023-04-09T08:05:13.390Z,23.85
2023-04-09T08:06:13.310Z,23.88
2023-04-09T08:07:13.356Z,23.85
2023-04-09T08:08:13.243Z,23.88
2023-04-09T08:09:13.277Z,23.86
2023-04-09T08:10:13.311Z,23.88
2023-04-09T08:11:13.260Z,23.85
2023-04-09T08:12:13.220Z,23.88
2023-04-09T08:13:13.296Z,23.88
2023-04-09T08:14:13.430Z,23.88
2023-04-09T08:15:13.419Z,23.85
2023-04-09T08:16:13.421Z,23.88
2023-04-09T08:17:13.400Z,23.86
2023-04-09T08:18:13.413Z,23.88
2023-04-09T08:19:13.408Z,23.88
2023-04-09T08:20:13.517Z,23.89
2023-04-09T08:21:13.613Z,23.86
2023-04-09T08:22:13.683Z,23.89
2023-04-09T08:23:13.714Z,23.92
2023-04-09T08:24:13.690Z,23.92
2023-04-09T08:25:13.702Z,23.91
2023-04-09T08:26:13.705Z,23.89
2023-04-09T08:27:13.787Z,23.93
2023-04-09T08:28:13.729Z,23.93
2023-04-09T08:29:13.736Z,23.95
2023-04-09T08:30:13.711Z,23.93
2023-04-09T08:31:13.735Z,23.98
2023-04-09T08:32:13.786Z,23.95
2023-04-09T08:33:13.786Z,23.95
2023-04-09T08:34:13.787Z,23.96
2023-04-09T08:35:13.806Z,23.96
2023-04-09T08:36:13.814Z,23.96
2023-04-09T08:37:13.767Z,23.98
2023-04-09T08:38:13.785Z,24.01
2023-04-09T08:39:13.854Z,23.98
2023-04-09T08:40:13.864Z,23.99
2023-04-09T08:41:14.162Z,23.98
2023-04-09T08:42:13.903Z,24.01
2023-04-09T08:43:13.991Z,24.01
2023-04-09T08:44:14.015Z,24.02
2023-04-09T08:45:14.083Z,24.01
2023-04-09T08:46:14.155Z,24.01
2023-04-09T08:47:14.177Z,24.01
2023-04-09T08:48:14.398Z,24.02
2023-04-09T08:49:14.268Z,24.02
2023-04-09T08:50:14.306Z,24.03
2023-04-09T08:51:14.357Z,24.02
2023-04-09T08:52:14.386Z,24.02
2023-04-09T08:53:14.430Z,24.05
2023-04-09T08:54:14.517Z,24.02
2023-04-09T08:55:14.596Z,24.03
2023-04-09T08:56:14.581Z,24.03
2023-04-09T08:57:14.629Z,24.05
2023-04-09T08:58:14.724Z,24.02
2023-04-09T08:59:14.775Z,24.05
2023-04-09T09:00:14.858Z,24.05
2023-04-09T09:01:14.944Z,24.08
2023-04-09T09:02:15.045Z,24.09
2023-04-09T09:03:15.061Z,24.09
2023-04-09T09:04:15.071Z,24.08
2023-04-09T09:05:15.132Z,24.10
2023-04-09T09:06:15.171Z,24.10
2023-04-09T09:07:15.255Z,24.10
2023-04-09T09:08:15.278Z,24.12
2023-04-09T09:09:15.341Z,24.12
2023-04-09T09:10:15.402Z,24.13
2023-04-09T09:11:15.470Z,24.16
2023-04-09T09:12:15.623Z,24.16
2023-04-09T09:13:15.571Z,24.16
2023-04-09T09:14:15.616Z,24.19
2023-04-09T09:15:15.685Z,24.17
2023-04-09T09:16:15.772Z,24.21
2023-04-09T09:17:15.797Z,24.21
2023-04-09T09:18:15.857Z,24.24
2023-04-09T09:19:15.905Z,24.21
2023-04-09T09:20:15.928Z,24.24
2023-04-09T09:21:16.078Z,24.27
2023-04-09T09:22:16.059Z,24.27
2023-04-09T09:23:16.082Z,24.30
2023-04-09T09:24:16.101Z,24.30
2023-04-09T09:25:16.215Z,24.31
2023-04-09T09:26:16.205Z,24.30
2023-04-09T09:27:16.228Z,24.34
2023-04-09T09:28:16.264Z,24.36
2023-04-09T09:29:16.324Z,24.36
2023-04-09T09:30:16.379Z,24.36
2023-04-09T09:31:16.467Z,24.37
2023-04-09T09:32:16.478Z,24.37
2023-04-09T09:33:16.513Z,24.37
2023-04-09T09:34:16.564Z,24.39
2023-04-09T09:35:16.593Z,24.41
2023-04-09T09:36:16.618Z,24.41
2023-04-09T09:37:16.689Z,24.41
2023-04-09T09:38:16.746Z,24.43
2023-04-09T09:39:16.759Z,24.43
2023-04-09T09:40:16.861Z,24.43
2023-04-09T09:41:16.880Z,24.43
2023-04-09T09:42:16.907Z,24.44
2023-04-09T09:43:16.975Z,24.44
2023-04-09T09:44:17.005Z,24.46
2023-04-09T09:45:17.080Z,24.48
2023-04-09T09:46:17.121Z,24.48
2023-04-09T09:47:17.287Z,24.50
2023-04-09T09:48:17.156Z,24.50
2023-04-09T09:49:17.214Z,24.51
2023-04-09T09:50:17.322Z,24.53
2023-04-09T09:51:17.326Z,24.50
2023-04-09T09:52:17.349Z,24.53
2023-04-09T09:53:17.397Z,24.54
2023-04-09T09:54:17.449Z,24.56
2023-04-09T09:55:17.495Z,24.56
2023-04-09T09:56:17.522Z,24.56
2023-04-09T09:57:17.592Z,24.56
2023-04-09T09:58:17.627Z,24.58
2023-04-09T09:59:17.621Z,24.58
2023-04-09T10:00:19.418Z,24.57
2023-04-09T10:01:17.744Z,24.57
2023-04-09T10:02:17.791Z,24.57
2023-04-09T10:03:17.801Z,24.57
2023-04-09T10:04:17.813Z,24.57
2023-04-09T10:05:17.846Z,24.61
2023-04-09T10:06:17.852Z,24.61
2023-04-09T10:07:17.921Z,24.61
2023-04-09T10:08:17.904Z,24.60
2023-04-09T10:09:17.984Z,24.61
2023-04-09T10:10:18.045Z,24.61
2023-04-09T10:11:18.016Z,24.63
2023-04-09T10:12:18.038Z,24.63
2023-04-09T10:13:18.062Z,24.64
2023-04-09T10:14:18.116Z,24.64
2023-04-09T10:15:18.142Z,24.64
2023-04-09T10:16:18.209Z,24.65
2023-04-09T10:17:18.227Z,24.65
2023-04-09T10:18:18.221Z,24.61
2023-04-09T10:19:18.250Z,24.65
2023-04-09T10:20:18.285Z,24.64
2023-04-09T10:21:18.338Z,24.65
2023-04-09T10:22:18.382Z,24.65
2023-04-09T10:23:18.376Z,24.63
2023-04-09T10:24:18.407Z,24.65
2023-04-09T10:25:18.439Z,24.67
2023-04-09T10:26:18.457Z,24.67
2023-04-09T10:27:18.511Z,24.67
2023-04-09T10:28:18.516Z,24.68
2023-04-09T10:29:18.547Z,24.67
2023-04-09T10:30:18.604Z,24.67
2023-04-09T10:31:18.626Z,24.67
2023-04-09T10:32:18.665Z,24.68
2023-04-09T10:33:18.661Z,24.68
2023-04-09T10:34:18.731Z,24.71
2023-04-09T10:35:18.713Z,24.71
2023-04-09T10:36:18.790Z,24.74
2023-04-09T10:37:18.749Z,24.72
2023-04-09T10:38:18.782Z,24.77
2023-04-09T10:39:18.793Z,24.77
2023-04-09T10:40:18.833Z,24.79
2023-04-09T10:41:18.845Z,24.78
2023-04-09T10:42:18.876Z,24.81
2023-04-09T10:43:18.927Z,24.81
2023-04-09T10:44:18.931Z,24.82
2023-04-09T10:45:21.928Z,24.82
2023-04-09T10:46:18.956Z,24.81
2023-04-09T10:47:18.959Z,24.85
2023-04-09T10:48:18.959Z,24.82
2023-04-09T10:49:18.922Z,24.84
2023-04-09T10:50:18.977Z,24.88
2023-04-09T10:51:18.917Z,24.88
2023-04-09T10:52:18.972Z,24.88
2023-04-09T10:53:18.950Z,24.86
2023-04-09T10:54:18.884Z,24.86
2023-04-09T10:55:18.912Z,24.89
2023-04-09T10:56:18.913Z,24.89
2023-04-09T10:57:18.977Z,24.89
2023-04-09T10:58:18.882Z,24.89
2023-04-09T10:59:18.882Z,24.86
2023-04-09T11:00:18.900Z,24.89
2023-04-09T11:01:18.876Z,24.88
2023-04-09T11:02:19.625Z,24.86
2023-04-09T11:03:18.944Z,24.88
2023-04-09T11:04:18.829Z,24.91
2023-04-09T11:05:18.819Z,24.89
2023-04-09T11:06:18.873Z,24.88
2023-04-09T11:07:18.814Z,24.91
2023-04-09T11:08:18.800Z,24.89
2023-04-09T11:09:18.777Z,24.91
2023-04-09T11:10:18.812Z,24.89
2023-04-09T11:11:18.761Z,24.91
2023-04-09T11:12:18.781Z,24.92
2023-04-09T11:13:18.772Z,24.91
2023-04-09T11:14:18.782Z,24.93
2023-04-09T11:15:18.797Z,24.92
2023-04-09T11:16:22.856Z,24.95
2023-04-09T11:17:19.743Z,24.96
2023-04-09T11:18:18.708Z,24.96
2023-04-09T11:19:18.714Z,24.96
2023-04-09T11:20:18.708Z,24.95
2023-04-09T11:21:18.716Z,25.02
2023-04-09T11:22:18.749Z,24.99
2023-04-09T11:23:18.686Z,24.98
2023-04-09T11:24:18.682Z,24.99
2023-04-09T11:25:18.693Z,25.01
2023-04-09T11:26:18.695Z,25.02
2023-04-09T11:27:18.664Z,25.01
2023-04-09T11:28:18.678Z,25.02
2023-04-09T11:29:18.619Z,24.99
2023-04-09T11:30:18.630Z,25.02
2023-04-09T11:31:18.731Z,25.01
2023-04-09T11:32:18.678Z,25.01
2023-04-09T11:33:20.299Z,25.02
2023-04-09T11:34:18.609Z,25.01
2023-04-09T11:35:18.607Z,25.03
2023-04-09T11:36:18.621Z,25.03
2023-04-09T11:37:18.578Z,25.02
2023-04-09T11:38:18.576Z,25.06
2023-04-09T11:39:18.558Z,25.02
2023-04-09T11:40:18.596Z,25.02
2023-04-09T11:41:18.554Z,25.05
2023-04-09T11:42:18.555Z,25.06
2023-04-09T11:43:18.582Z,25.03
2023-04-09T11:44:18.548Z,25.06
2023-04-09T11:45:18.532Z,25.02
2023-04-09T11:46:18.541Z,25.06
2023-04-09T11:47:18.499Z,25.05
2023-04-09T11:48:18.711Z,25.05
2023-04-09T11:49:18.481Z,25.05
2023-04-09T11:50:18.481Z,25.05
2023-04-09T11:51:18.491Z,25.05
2023-04-09T11:52:18.473Z,25.03
2023-04-09T11:53:18.452Z,25.05
2023-04-09T11:54:18.480Z,25.05
2023-04-09T11:55:18.465Z,25.05
2023-04-09T11:56:18.500Z,25.05
2023-04-09T11:57:18.442Z,25.05
2023-04-09T11:58:18.486Z,25.06
2023-04-09T11:59:18.464Z,25.05
2023-04-09T12:00:18.477Z,25.08
2023-04-09T12:01:18.493Z,25.08
2023-04-09T12:02:18.798Z,25.10
2023-04-09T12:03:20.341Z,25.09
2023-04-09T12:04:18.881Z,25.09
2023-04-09T12:05:18.534Z,25.10
2023-04-09T12:06:18.513Z,25.09
2023-04-09T12:07:18.608Z,25.15
2023-04-09T12:08:18.477Z,25.12
2023-04-09T12:09:18.480Z,25.10
2023-04-09T12:10:18.495Z,25.12
2023-04-09T12:11:18.491Z,25.15
2023-04-09T12:12:18.504Z,25.09
2023-04-09T12:13:18.457Z,25.15
2023-04-09T12:14:18.465Z,25.15
2023-04-09T12:15:18.471Z,25.16
2023-04-09T12:16:18.504Z,25.16
2023-04-09T12:17:18.560Z,25.15
2023-04-09T12:18:18.483Z,25.16
2023-04-09T12:19:18.452Z,25.19
2023-04-09T12:20:18.455Z,25.19
2023-04-09T12:21:19.398Z,25.18
2023-04-09T12:22:18.558Z,25.22
2023-04-09T12:23:18.450Z,25.20
2023-04-09T12:24:18.437Z,25.20
2023-04-09T12:25:18.473Z,25.20
2023-04-09T12:26:18.441Z,25.19
2023-04-09T12:27:18.504Z,25.20
2023-04-09T12:28:18.992Z,25.18
2023-04-09T12:29:18.461Z,25.19
2023-04-09T12:30:18.485Z,25.16
2023-04-09T12:31:18.516Z,25.16
2023-04-09T12:32:18.646Z,25.19
2023-04-09T12:33:18.544Z,25.16
2023-04-09T12:34:18.605Z,25.18
2023-04-09T12:35:18.556Z,25.18
2023-04-09T12:36:18.566Z,25.16
2023-04-09T12:37:18.566Z,25.13
2023-04-09T12:38:18.574Z,25.13
2023-04-09T12:39:18.586Z,25.16
2023-04-09T12:40:18.593Z,25.15
2023-04-09T12:41:18.565Z,25.16
2023-04-09T12:42:18.576Z,25.16
2023-04-09T12:43:18.619Z,25.13
2023-04-09T12:44:18.603Z,25.16
2023-04-09T12:45:18.594Z,25.16
2023-04-09T12:46:18.681Z,25.16
2023-04-09T12:47:18.662Z,25.15
2023-04-09T12:48:18.596Z,25.15
2023-04-09T12:49:18.606Z,25.15
2023-04-09T12:50:18.568Z,25.16
2023-04-09T12:51:18.560Z,25.15
2023-04-09T12:52:18.572Z,25.15